createdAt,value
2022-12-04T00:00:13.154Z,14.46
2022-12-04T00:01:13.167Z,14.43
2022-12-04T00:02:13.142Z,14.43
2022-12-04T00:03:13.244Z,14.45
2022-12-04T00:04:13.200Z,14.45
2022-12-04T00:05:13.246Z,14.45
2022-12-04T00:06:13.124Z,14.43
2022-12-04T00:07:13.141Z,14.45
2022-12-04T00:08:13.173Z,14.43
2022-12-04T00:09:13.126Z,14.47
2022-12-04T00:10:13.126Z,14.36
2022-12-04T00:11:13.100Z,14.46
2022-12-04T00:12:13.111Z,14.32
2022-12-04T00:13:13.088Z,14.50
2022-12-04T00:14:13.105Z,14.46
2022-12-04T00:15:28.533Z,14.39
2022-12-04T00:16:13.156Z,14.47
2022-12-04T00:17:13.086Z,14.42
2022-12-04T00:18:13.072Z,14.33
2022-12-04T00:19:13.081Z,14.32
2022-12-04T00:20:13.064Z,14.37
2022-12-04T00:21:13.062Z,14.39
2022-12-04T00:22:13.053Z,14.36
2022-12-04T00:23:13.059Z,14.39
2022-12-04T00:24:13.041Z,14.37
2022-12-04T00:25:13.045Z,14.37
2022-12-04T00:26:13.032Z,14.45
2022-12-04T00:27:13.023Z,14.39
2022-12-04T00:28:13.009Z,14.40
2022-12-04T00:29:13.019Z,14.40
2022-12-04T00:30:13.008Z,14.40
2022-12-04T00:31:13.064Z,14.39
2022-12-04T00:32:13.004Z,14.32
2022-12-04T00:33:13.008Z,14.40
2022-12-04T00:34:12.987Z,14.35
2022-12-04T00:35:13.006Z,14.43
2022-12-04T00:36:12.981Z,14.36
2022-12-04T00:37:12.969Z,14.37
2022-12-04T00:38:12.988Z,14.37
2022-12-04T00:39:12.967Z,14.36
2022-12-04T00:40:12.946Z,14.35
2022-12-04T00:41:12.943Z,14.40
2022-12-04T00:42:12.934Z,14.39
2022-12-04T00:43:12.973Z,14.42
2022-12-04T00:44:12.937Z,14.37
2022-12-04T00:45:12.938Z,14.39
2022-12-04T00:46:12.956Z,14.35
2022-12-04T00:47:12.924Z,14.25
2022-12-04T00:48:12.916Z,14.24
2022-12-04T00:49:12.905Z,14.39
2022-12-04T00:50:12.896Z,14.37
2022-12-04T00:51:12.908Z,14.32
2022-12-04T00:52:12.897Z,14.28
2022-12-04T00:53:12.882Z,14.29
2022-12-04T00:54:12.873Z,14.29
2022-12-04T00:55:12.886Z,14.32
2022-12-04T00:56:12.872Z,14.32
2022-12-04T00:57:12.859Z,14.33
2022-12-04T00:58:12.876Z,14.27
2022-12-04T00:59:12.865Z,14.24
2022-12-04T01:00:12.838Z,14.25
2022-12-04T01:01:12.909Z,14.27
2022-12-04T01:02:12.846Z,14.28
2022-12-04T01:03:12.988Z,14.39
2022-12-04T01:04:12.819Z,14.32
2022-12-04T01:05:12.829Z,14.27
2022-12-04T01:06:12.820Z,14.28
2022-12-04T01:07:12.838Z,14.35
2022-12-04T01:08:12.971Z,14.24
2022-12-04T01:09:12.795Z,14.32
2022-12-04T01:10:12.804Z,14.29
2022-12-04T01:11:12.793Z,14.35
2022-12-04T01:12:17.575Z,14.28
2022-12-04T01:13:12.774Z,14.33
2022-12-04T01:14:12.768Z,14.29
2022-12-04T01:15:12.777Z,14.32
2022-12-04T01:16:12.792Z,14.21
2022-12-04T01:17:12.769Z,14.32
2022-12-04T01:18:12.745Z,14.27
2022-12-04T01:19:12.748Z,14.35
2022-12-04T01:20:12.747Z,14.37
2022-12-04T01:21:12.731Z,14.24
2022-12-04T01:22:12.735Z,14.29
2022-12-04T01:23:12.760Z,14.29
2022-12-04T01:24:12.738Z,14.39
2022-12-04T01:25:12.713Z,14.32
2022-12-04T01:26:12.714Z,14.28
2022-12-04T01:27:12.703Z,14.29
2022-12-04T01:28:12.697Z,14.32
2022-12-04T01:29:12.705Z,14.24
2022-12-04T01:30:12.692Z,14.28
2022-12-04T01:31:12.765Z,14.25
2022-12-04T01:32:12.784Z,14.29
2022-12-04T01:33:12.663Z,14.21
2022-12-04T01:34:12.674Z,14.35
2022-12-04T01:35:12.657Z,14.29
2022-12-04T01:36:12.674Z,14.28
2022-12-04T01:37:12.659Z,14.28
2022-12-04T01:38:12.643Z,14.32
2022-12-04T01:39:12.671Z,14.27
2022-12-04T01:40:12.648Z,14.27
2022-12-04T01:41:12.635Z,14.28
2022-12-04T01:42:12.620Z,14.32
2022-12-04T01:43:12.624Z,14.22
2022-12-04T01:44:12.616Z,14.33
2022-12-04T01:45:12.605Z,14.27
2022-12-04T01:46:12.754Z,14.36
2022-12-04T01:47:12.604Z,14.33
2022-12-04T01:48:12.610Z,14.35
2022-12-04T01:49:12.593Z,14.32
2022-12-04T01:50:12.598Z,14.32
2022-12-04T01:51:12.572Z,14.35
2022-12-04T01:52:12.579Z,14.20
2022-12-04T01:53:12.576Z,14.29
2022-12-04T01:54:12.555Z,14.28
2022-12-04T01:55:12.568Z,14.22
2022-12-04T01:56:12.563Z,14.32
2022-12-04T01:57:12.553Z,14.29
2022-12-04T01:58:12.533Z,14.32
2022-12-04T01:59:12.526Z,14.18
2022-12-04T02:00:12.524Z,14.21
2022-12-04T02:01:12.590Z,14.24
2022-12-04T02:02:12.666Z,14.20
2022-12-04T02:03:12.540Z,14.22
2022-12-04T02:04:12.516Z,14.22
2022-12-04T02:05:12.508Z,14.21
2022-12-04T02:06:12.515Z,14.32
2022-12-04T02:07:12.494Z,14.21
2022-12-04T02:08:12.563Z,14.21
2022-12-04T02:09:12.477Z,14.22
2022-12-04T02:10:12.475Z,14.21
2022-12-04T02:11:12.498Z,14.20
2022-12-04T02:12:12.479Z,14.25
2022-12-04T02:13:12.452Z,14.17
2022-12-04T02:14:12.466Z,14.21
2022-12-04T02:15:12.444Z,14.29
2022-12-04T02:16:12.518Z,14.18
2022-12-04T02:17:12.445Z,14.21
2022-12-04T02:18:12.428Z,14.22
2022-12-04T02:19:12.433Z,14.29
2022-12-04T02:20:12.487Z,14.28
2022-12-04T02:21:12.415Z,14.17
2022-12-04T02:22:12.428Z,14.18
2022-12-04T02:23:12.416Z,14.24
2022-12-04T02:24:12.398Z,14.27
2022-12-04T02:25:12.389Z,14.24
2022-12-04T02:26:12.403Z,14.22
2022-12-04T02:27:12.411Z,14.28
2022-12-04T02:28:12.389Z,14.22
2022-12-04T02:29:12.368Z,14.20
2022-12-04T02:30:12.378Z,14.21
2022-12-04T02:31:12.471Z,14.20
2022-12-04T02:32:12.364Z,14.21
2022-12-04T02:33:12.357Z,14.20
2022-12-04T02:34:12.350Z,14.20
2022-12-04T02:35:12.335Z,14.29
2022-12-04T02:36:12.344Z,14.12
2022-12-04T02:37:12.335Z,14.22
2022-12-04T02:38:12.326Z,14.18
2022-12-04T02:39:12.330Z,14.18
2022-12-04T02:40:12.309Z,14.22
2022-12-04T02:41:12.314Z,14.25
2022-12-04T02:42:12.312Z,14.24
2022-12-04T02:43:12.331Z,14.20
2022-12-04T02:44:12.303Z,14.20
2022-12-04T02:45:12.292Z,14.22
2022-12-04T02:46:12.391Z,14.17
2022-12-04T02:47:12.266Z,14.20
2022-12-04T02:48:12.276Z,14.24
2022-12-04T02:49:12.257Z,14.18
2022-12-04T02:50:12.254Z,14.15
2022-12-04T02:51:12.266Z,14.10
2022-12-04T02:52:12.276Z,14.17
2022-12-04T02:53:12.248Z,14.17
2022-12-04T02:54:12.246Z,14.22
2022-12-04T02:55:12.226Z,14.15
2022-12-04T02:56:12.225Z,14.17
2022-12-04T02:57:12.217Z,14.14
2022-12-04T02:58:12.214Z,14.17
2022-12-04T02:59:12.236Z,14.17
2022-12-04T03:00:12.209Z,14.21
2022-12-04T03:01:12.241Z,14.18
2022-12-04T03:02:12.273Z,14.18
2022-12-04T03:03:12.181Z,14.15
2022-12-04T03:04:12.183Z,14.18
2022-12-04T03:05:12.188Z,14.14
2022-12-04T03:06:12.175Z,14.15
2022-12-04T03:07:12.162Z,14.14
2022-12-04T03:08:12.220Z,14.18
2022-12-04T03:09:12.172Z,14.14
2022-12-04T03:10:12.173Z,14.24
2022-12-04T03:11:12.152Z,14.12
2022-12-04T03:12:12.152Z,14.18
2022-12-04T03:13:12.127Z,14.15
2022-12-04T03:14:12.137Z,14.15
2022-12-04T03:15:12.153Z,14.14
2022-12-04T03:16:12.129Z,14.15
2022-12-04T03:17:12.301Z,14.17
2022-12-04T03:18:12.120Z,14.18
2022-12-04T03:19:12.109Z,14.15
2022-12-04T03:20:12.094Z,14.17
2022-12-04T03:21:12.082Z,14.14
2022-12-04T03:22:12.091Z,14.14
2022-12-04T03:23:12.094Z,14.12
2022-12-04T03:24:12.085Z,14.21
2022-12-04T03:25:12.083Z,14.17
2022-12-04T03:26:12.066Z,14.15
2022-12-04T03:27:12.054Z,14.18
2022-12-04T03:28:12.061Z,14.21
2022-12-04T03:29:12.062Z,14.18
2022-12-04T03:30:12.052Z,14.22
2022-12-04T03:31:12.152Z,14.18
2022-12-04T03:32:12.065Z,14.15
2022-12-04T03:33:12.044Z,14.10
2022-12-04T03:34:12.031Z,14.07
2022-12-04T03:35:12.011Z,14.12
2022-12-04T03:36:12.032Z,14.20
2022-12-04T03:37:12.021Z,14.15
2022-12-04T03:38:12.007Z,14.09
2022-12-04T03:39:11.983Z,14.15
2022-12-04T03:40:11.995Z,14.12
2022-12-04T03:41:11.992Z,14.10
2022-12-04T03:42:11.984Z,14.12
2022-12-04T03:43:11.977Z,14.10
2022-12-04T03:44:11.979Z,14.15
2022-12-04T03:45:11.957Z,14.18
2022-12-04T03:46:11.993Z,14.12
2022-12-04T03:47:11.973Z,14.14
2022-12-04T03:48:11.951Z,14.10
2022-12-04T03:49:11.948Z,14.14
2022-12-04T03:50:11.956Z,14.06
2022-12-04T03:51:11.936Z,14.15
2022-12-04T03:52:11.918Z,14.10
2022-12-04T03:53:11.922Z,14.14
2022-12-04T03:54:11.914Z,14.17
2022-12-04T03:55:11.919Z,14.10
2022-12-04T03:56:11.904Z,14.10
2022-12-04T03:57:11.905Z,14.14
2022-12-04T03:58:11.895Z,14.12
2022-12-04T03:59:11.906Z,14.12
2022-12-04T04:00:11.956Z,14.14
2022-12-04T04:01:11.954Z,14.09
2022-12-04T04:02:11.917Z,14.12
2022-12-04T04:03:11.889Z,14.15
2022-12-04T04:04:11.853Z,14.12
2022-12-04T04:05:11.849Z,14.07
2022-12-04T04:06:11.849Z,14.09
2022-12-04T04:07:11.835Z,14.10
2022-12-04T04:08:11.892Z,14.06
2022-12-04T04:09:11.836Z,14.09
2022-12-04T04:10:11.823Z,14.02
2022-12-04T04:11:11.819Z,14.10
2022-12-04T04:12:11.822Z,14.00
2022-12-04T04:13:11.831Z,14.10
2022-12-04T04:14:11.801Z,14.06
2022-12-04T04:15:11.811Z,14.07
2022-12-04T04:16:11.861Z,14.06
2022-12-04T04:17:11.795Z,14.00
2022-12-04T04:18:11.795Z,14.03
2022-12-04T04:19:11.802Z,14.15
2022-12-04T04:20:11.796Z,14.10
2022-12-04T04:21:11.773Z,14.02
2022-12-04T04:22:11.754Z,14.15
2022-12-04T04:23:11.758Z,14.07
2022-12-04T04:24:11.749Z,14.04
2022-12-04T04:25:11.753Z,14.04
2022-12-04T04:26:11.733Z,14.03
2022-12-04T04:27:11.792Z,14.00
2022-12-04T04:28:11.744Z,13.97
2022-12-04T04:29:11.715Z,14.10
2022-12-04T04:30:11.709Z,14.00
2022-12-04T04:31:11.768Z,14.04
2022-12-04T04:32:11.703Z,14.00
2022-12-04T04:33:11.700Z,14.06
2022-12-04T04:34:11.698Z,14.00
2022-12-04T04:35:11.707Z,14.02
2022-12-04T04:36:11.685Z,14.00
2022-12-04T04:37:11.672Z,14.00
2022-12-04T04:38:11.664Z,14.07
2022-12-04T04:39:11.670Z,13.95
2022-12-04T04:40:11.655Z,14.07
2022-12-04T04:41:11.661Z,14.02
2022-12-04T04:42:11.659Z,14.04
2022-12-04T04:43:11.652Z,14.00
2022-12-04T04:44:11.655Z,13.99
2022-12-04T04:45:11.630Z,14.04
2022-12-04T04:46:11.733Z,14.04
2022-12-04T04:47:11.624Z,13.99
2022-12-04T04:48:11.628Z,13.99
2022-12-04T04:49:11.607Z,13.97
2022-12-04T04:50:11.606Z,14.04
2022-12-04T04:51:11.618Z,14.03
2022-12-04T04:52:11.598Z,14.03
2022-12-04T04:53:11.582Z,13.97
2022-12-04T04:54:11.585Z,14.04
2022-12-04T04:55:11.568Z,14.02
2022-12-04T04:56:11.565Z,13.97
2022-12-04T04:57:11.579Z,14.02
2022-12-04T04:58:11.554Z,13.96
2022-12-04T04:59:11.548Z,13.95
2022-12-04T05:00:11.548Z,13.92
2022-12-04T05:01:11.739Z,13.97
2022-12-04T05:02:11.617Z,13.96
2022-12-04T05:03:11.614Z,13.96
2022-12-04T05:04:11.537Z,13.95
2022-12-04T05:05:11.512Z,13.95
2022-12-04T05:06:11.515Z,13.96
2022-12-04T05:07:11.540Z,13.96
2022-12-04T05:08:11.534Z,13.97
2022-12-04T05:09:11.510Z,13.97
2022-12-04T05:10:11.513Z,13.96
2022-12-04T05:11:11.485Z,13.96
2022-12-04T05:12:11.490Z,14.00
2022-12-04T05:13:11.479Z,13.92
2022-12-04T05:14:11.472Z,13.96
2022-12-04T05:15:11.473Z,14.02
2022-12-04T05:16:11.516Z,13.95
2022-12-04T05:17:12.915Z,13.96
2022-12-04T05:18:11.451Z,13.97
2022-12-04T05:19:11.451Z,13.95
2022-12-04T05:20:11.438Z,13.99
2022-12-04T05:21:11.423Z,14.00
2022-12-04T05:22:11.442Z,13.97
2022-12-04T05:23:11.454Z,13.96
2022-12-04T05:24:11.430Z,14.00
2022-12-04T05:25:11.415Z,13.96
2022-12-04T05:26:11.416Z,13.97
2022-12-04T05:27:11.418Z,14.03
2022-12-04T05:28:11.398Z,14.00
2022-12-04T05:29:11.391Z,13.99
2022-12-04T05:30:11.383Z,13.97
2022-12-04T05:31:11.517Z,13.99
2022-12-04T05:32:11.365Z,13.91
2022-12-04T05:33:11.370Z,14.00
2022-12-04T05:34:11.374Z,14.02
2022-12-04T05:35:11.863Z,13.96
2022-12-04T05:36:11.341Z,13.96
2022-12-04T05:37:11.332Z,13.97
2022-12-04T05:38:11.345Z,13.97
2022-12-04T05:39:11.354Z,13.99
2022-12-04T05:40:11.333Z,13.96
2022-12-04T05:41:11.328Z,13.97
2022-12-04T05:42:11.330Z,13.95
2022-12-04T05:43:11.322Z,13.89
2022-12-04T05:44:11.312Z,13.95
2022-12-04T05:45:11.289Z,13.96
2022-12-04T05:46:11.393Z,13.92
2022-12-04T05:47:11.379Z,13.99
2022-12-04T05:48:11.291Z,13.89
2022-12-04T05:49:11.286Z,13.99
2022-12-04T05:50:11.288Z,13.92
2022-12-04T05:51:11.284Z,13.97
2022-12-04T05:52:11.248Z,13.87
2022-12-04T05:53:11.246Z,13.87
2022-12-04T05:54:11.238Z,13.87
2022-12-04T05:55:11.283Z,13.92
2022-12-04T05:56:11.226Z,13.96
2022-12-04T05:57:11.229Z,13.87
2022-12-04T05:58:11.234Z,13.87
2022-12-04T05:59:11.224Z,13.91
2022-12-04T06:00:11.202Z,13.87
2022-12-04T06:01:11.204Z,13.91
2022-12-04T06:02:11.295Z,13.95
2022-12-04T06:03:11.320Z,13.91
2022-12-04T06:04:11.189Z,13.89
2022-12-04T06:05:11.182Z,13.91
2022-12-04T06:06:14.856Z,13.92
2022-12-04T06:07:11.201Z,13.88
2022-12-04T06:08:11.260Z,13.92
2022-12-04T06:09:11.171Z,13.92
2022-12-04T06:10:11.159Z,13.88
2022-12-04T06:11:11.187Z,13.92
2022-12-04T06:12:11.151Z,13.85
2022-12-04T06:13:11.149Z,13.87
2022-12-04T06:14:11.133Z,13.85
2022-12-04T06:15:11.148Z,13.82
2022-12-04T06:16:11.158Z,13.88
2022-12-04T06:17:11.126Z,13.85
2022-12-04T06:18:11.115Z,13.89
2022-12-04T06:19:11.105Z,13.88
2022-12-04T06:20:11.980Z,13.88
2022-12-04T06:21:11.104Z,13.85
2022-12-04T06:22:11.096Z,13.88
2022-12-04T06:23:11.106Z,13.89
2022-12-04T06:24:11.071Z,13.88
2022-12-04T06:25:11.080Z,13.85
2022-12-04T06:26:11.069Z,13.87
2022-12-04T06:27:27.233Z,13.89
2022-12-04T06:28:11.071Z,13.85
2022-12-04T06:29:11.065Z,13.87
2022-12-04T06:30:11.041Z,13.84
2022-12-04T06:31:11.102Z,13.88
2022-12-04T06:32:12.242Z,13.89
2022-12-04T06:33:11.028Z,13.85
2022-12-04T06:34:11.012Z,13.88
2022-12-04T06:35:11.031Z,13.92
2022-12-04T06:36:11.011Z,13.85
2022-12-04T06:37:11.011Z,13.78
2022-12-04T06:38:10.994Z,13.89
2022-12-04T06:39:14.166Z,13.87
2022-12-04T06:40:11.004Z,13.79
2022-12-04T06:41:10.988Z,13.87
2022-12-04T06:42:10.984Z,13.82
2022-12-04T06:43:10.992Z,13.84
2022-12-04T06:44:10.968Z,13.91
2022-12-04T06:45:10.960Z,13.84
2022-12-04T06:46:11.112Z,13.84
2022-12-04T06:47:10.950Z,13.92
2022-12-04T06:48:10.945Z,13.82
2022-12-04T06:49:10.936Z,13.91
2022-12-04T06:50:10.935Z,13.85
2022-12-04T06:51:10.931Z,13.79
2022-12-04T06:52:10.919Z,13.84
2022-12-04T06:53:10.942Z,13.85
2022-12-04T06:54:10.903Z,13.85
2022-12-04T06:55:10.903Z,13.82
2022-12-04T06:56:10.909Z,13.84
2022-12-04T06:57:10.889Z,13.73
2022-12-04T06:58:10.892Z,13.84
2022-12-04T06:59:10.917Z,13.82
2022-12-04T07:00:10.873Z,13.84
2022-12-04T07:01:11.001Z,13.81
2022-12-04T07:02:10.934Z,13.85
2022-12-04T07:03:10.862Z,13.77
2022-12-04T07:04:10.855Z,13.75
2022-12-04T07:05:10.857Z,13.77
2022-12-04T07:06:10.848Z,13.82
2022-12-04T07:07:10.852Z,13.77
2022-12-04T07:08:10.921Z,13.81
2022-12-04T07:09:10.836Z,13.77
2022-12-04T07:10:10.825Z,13.78
2022-12-04T07:11:10.821Z,13.77
2022-12-04T07:12:10.818Z,13.77
2022-12-04T07:13:10.810Z,13.71
2022-12-04T07:14:10.792Z,13.77
2022-12-04T07:15:10.824Z,13.79
2022-12-04T07:16:10.835Z,13.73
2022-12-04T07:17:10.853Z,13.75
2022-12-04T07:18:10.779Z,13.77
2022-12-04T07:19:10.763Z,13.84
2022-12-04T07:20:10.768Z,13.73
2022-12-04T07:21:10.761Z,13.73
2022-12-04T07:22:10.746Z,13.75
2022-12-04T07:23:10.751Z,13.77
2022-12-04T07:24:10.746Z,13.77
2022-12-04T07:25:10.744Z,13.84
2022-12-04T07:26:10.717Z,13.75
2022-12-04T07:27:10.717Z,13.73
2022-12-04T07:28:10.731Z,13.78
2022-12-04T07:29:10.781Z,13.77
2022-12-04T07:30:15.544Z,13.75
2022-12-04T07:31:10.730Z,13.78
2022-12-04T07:32:10.833Z,13.77
2022-12-04T07:33:10.688Z,13.75
2022-12-04T07:34:10.686Z,13.73
2022-12-04T07:35:10.878Z,13.85
2022-12-04T07:36:10.684Z,13.71
2022-12-04T07:37:10.660Z,13.73
2022-12-04T07:38:10.666Z,13.75
2022-12-04T07:39:10.665Z,13.75
2022-12-04T07:40:10.653Z,13.75
2022-12-04T07:41:10.656Z,13.79
2022-12-04T07:42:10.628Z,13.77
2022-12-04T07:43:10.631Z,13.75
2022-12-04T07:44:10.635Z,13.75
2022-12-04T07:45:10.632Z,13.71
2022-12-04T07:46:10.712Z,13.78
2022-12-04T07:47:10.647Z,13.71
2022-12-04T07:48:10.606Z,13.73
2022-12-04T07:49:10.598Z,13.75
2022-12-04T07:50:10.581Z,13.70
2022-12-04T07:51:10.583Z,13.71
2022-12-04T07:52:10.587Z,13.73
2022-12-04T07:53:10.594Z,13.71
2022-12-04T07:54:10.562Z,13.70
2022-12-04T07:55:10.573Z,13.79
2022-12-04T07:56:10.560Z,13.75
2022-12-04T07:57:10.548Z,13.77
2022-12-04T07:58:10.552Z,13.73
2022-12-04T07:59:10.563Z,13.77
2022-12-04T08:00:10.539Z,13.73
2022-12-04T08:01:10.553Z,13.71
2022-12-04T08:02:10.527Z,13.77
2022-12-04T08:03:10.542Z,13.77
2022-12-04T08:04:10.612Z,13.75
2022-12-04T08:05:10.525Z,13.73
2022-12-04T08:06:10.528Z,13.64
2022-12-04T08:07:10.504Z,13.69
2022-12-04T08:08:10.576Z,13.78
2022-12-04T08:09:10.649Z,13.69
2022-12-04T08:10:10.468Z,13.73
2022-12-04T08:11:10.484Z,13.75
2022-12-04T08:12:10.469Z,13.70
2022-12-04T08:13:10.467Z,13.78
2022-12-04T08:14:10.467Z,13.75
2022-12-04T08:15:10.459Z,13.78
2022-12-04T08:16:10.440Z,13.77
2022-12-04T08:17:10.500Z,13.77
2022-12-04T08:18:10.428Z,13.79
2022-12-04T08:19:10.457Z,13.70
2022-12-04T08:20:10.420Z,13.70
2022-12-04T08:21:10.412Z,13.70
2022-12-04T08:22:10.404Z,13.63
2022-12-04T08:23:10.415Z,13.73
2022-12-04T08:24:10.395Z,13.70
2022-12-04T08:25:10.401Z,13.67
2022-12-04T08:26:10.404Z,13.67
2022-12-04T08:27:10.377Z,13.73
2022-12-04T08:28:10.377Z,13.73
2022-12-04T08:29:10.367Z,13.75
2022-12-04T08:30:10.355Z,13.70
2022-12-04T08:31:10.445Z,13.73
2022-12-04T08:32:10.357Z,13.69
2022-12-04T08:33:10.347Z,13.67
2022-12-04T08:34:10.355Z,13.69
2022-12-04T08:35:10.383Z,13.71
2022-12-04T08:36:10.321Z,13.73
2022-12-04T08:37:10.319Z,13.67
2022-12-04T08:38:10.321Z,13.77
2022-12-04T08:39:10.318Z,13.77
2022-12-04T08:40:10.296Z,13.73
2022-12-04T08:41:10.307Z,13.73
2022-12-04T08:42:10.306Z,13.71
2022-12-04T08:43:10.294Z,13.71
2022-12-04T08:44:10.285Z,13.75
2022-12-04T08:45:10.281Z,13.71
2022-12-04T08:46:10.413Z,13.82
2022-12-04T08:47:10.270Z,13.82
2022-12-04T08:48:10.249Z,13.88
2022-12-04T08:49:10.250Z,13.85
2022-12-04T08:50:10.257Z,13.87
2022-12-04T08:51:10.261Z,13.87
2022-12-04T08:52:10.230Z,13.99
2022-12-04T08:53:10.253Z,13.92
2022-12-04T08:54:10.216Z,13.96
2022-12-04T08:55:10.232Z,14.06
2022-12-04T08:56:10.223Z,14.10
2022-12-04T08:57:10.216Z,14.09
2022-12-04T08:58:10.210Z,14.14
2022-12-04T08:59:10.200Z,14.21
2022-12-04T09:00:10.197Z,14.18
2022-12-04T09:01:10.265Z,14.17
2022-12-04T09:02:10.172Z,14.20
2022-12-04T09:03:10.188Z,14.20
2022-12-04T09:04:10.234Z,14.21
2022-12-04T09:05:10.169Z,14.21
2022-12-04T09:06:10.170Z,14.21
2022-12-04T09:07:10.191Z,14.21
2022-12-04T09:08:10.317Z,14.28
2022-12-04T09:09:10.161Z,14.35
2022-12-04T09:10:10.140Z,14.28
2022-12-04T09:11:10.128Z,14.29
2022-12-04T09:12:10.126Z,14.37
2022-12-04T09:13:10.119Z,14.40
2022-12-04T09:14:10.115Z,14.43
2022-12-04T09:15:10.106Z,14.39
2022-12-04T09:16:10.180Z,14.47
2022-12-04T09:17:10.113Z,14.46
2022-12-04T09:18:10.097Z,14.45
2022-12-04T09:19:10.086Z,14.46
2022-12-04T09:20:10.099Z,14.45
2022-12-04T09:21:10.102Z,14.46
2022-12-04T09:22:10.082Z,14.46
2022-12-04T09:23:10.113Z,14.58
2022-12-04T09:24:10.061Z,14.57
2022-12-04T09:25:10.075Z,14.61
2022-12-04T09:26:10.055Z,14.58
2022-12-04T09:27:14.665Z,14.68
2022-12-04T09:28:10.038Z,14.68
2022-12-04T09:29:10.056Z,14.73
2022-12-04T09:30:10.051Z,14.65
2022-12-04T09:31:10.128Z,14.73
2022-12-04T09:32:10.038Z,14.73
2022-12-04T09:33:10.031Z,14.80
2022-12-04T09:34:10.013Z,14.80
2022-12-04T09:35:10.039Z,14.75
2022-12-04T09:36:10.019Z,14.88
2022-12-04T09:37:10.004Z,14.84
2022-12-04T09:38:09.993Z,14.84
2022-12-04T09:39:10.015Z,14.86
2022-12-04T09:40:09.988Z,14.89
2022-12-04T09:41:09.986Z,14.91
2022-12-04T09:42:09.987Z,15.02
2022-12-04T09:43:09.986Z,15.02
2022-12-04T09:44:09.985Z,15.03
2022-12-04T09:45:09.981Z,15.09
2022-12-04T09:46:09.993Z,15.14
2022-12-04T09:47:10.028Z,15.19
2022-12-04T09:48:09.956Z,15.14
2022-12-04T09:49:09.968Z,15.21
2022-12-04T09:50:09.947Z,15.25
2022-12-04T09:51:09.936Z,15.29
2022-12-04T09:52:09.945Z,15.35
2022-12-04T09:53:09.933Z,15.50
2022-12-04T09:54:09.926Z,15.38
2022-12-04T09:55:09.948Z,15.46
2022-12-04T09:56:09.911Z,15.56
2022-12-04T09:57:09.918Z,15.59
2022-12-04T09:58:09.916Z,15.59
2022-12-04T09:59:09.958Z,15.71
2022-12-04T10:00:09.904Z,15.69
2022-12-04T10:01:09.908Z,15.76
2022-12-04T10:02:09.967Z,15.76
2022-12-04T10:03:10.045Z,15.89
2022-12-04T10:04:09.935Z,15.86
2022-12-04T10:05:09.888Z,15.93
2022-12-04T10:06:09.872Z,15.93
2022-12-04T10:07:09.896Z,16.01
2022-12-04T10:08:09.923Z,16.01
2022-12-04T10:09:09.857Z,15.93
2022-12-04T10:10:09.882Z,16.09
2022-12-04T10:11:09.869Z,16.02
2022-12-04T10:12:09.864Z,16.02
2022-12-04T10:13:09.841Z,16.08
2022-12-04T10:14:09.853Z,16.12
2022-12-04T10:15:09.850Z,16.20
2022-12-04T10:16:10.000Z,16.21
2022-12-04T10:17:09.822Z,16.20
2022-12-04T10:18:09.834Z,16.23
2022-12-04T10:19:09.825Z,16.12
2022-12-04T10:20:09.815Z,16.21
2022-12-04T10:21:09.822Z,16.30
2022-12-04T10:22:09.832Z,16.28
2022-12-04T10:23:13.780Z,16.31
2022-12-04T10:24:09.802Z,16.34
2022-12-04T10:25:09.805Z,16.34
2022-12-04T10:26:09.800Z,16.25
2022-12-04T10:27:09.856Z,16.33
2022-12-04T10:28:09.783Z,16.33
2022-12-04T10:29:09.778Z,16.28
2022-12-04T10:30:09.807Z,16.33
2022-12-04T10:31:09.814Z,16.20
2022-12-04T10:32:09.779Z,16.27
2022-12-04T10:33:09.810Z,16.28
2022-12-04T10:34:09.779Z,16.25
2022-12-04T10:35:09.761Z,16.31
2022-12-04T10:36:09.787Z,16.27
2022-12-04T10:37:09.753Z,16.20
2022-12-04T10:38:09.745Z,16.20
2022-12-04T10:39:09.749Z,16.21
2022-12-04T10:40:09.756Z,16.21
2022-12-04T10:41:14.655Z,16.17
2022-12-04T10:42:09.742Z,16.25
2022-12-04T10:43:09.759Z,16.12
2022-12-04T10:44:09.731Z,16.21
2022-12-04T10:45:09.741Z,16.12
2022-12-04T10:46:09.814Z,16.14
2022-12-04T10:47:09.761Z,16.08
2022-12-04T10:48:09.723Z,16.07
2022-12-04T10:49:09.719Z,16.07
2022-12-04T10:50:09.725Z,16.09
2022-12-04T10:51:09.704Z,16.07
2022-12-04T10:52:09.706Z,15.92
2022-12-04T10:53:13.732Z,15.46
2022-12-04T10:54:09.705Z,14.96
2022-12-04T10:55:09.679Z,14.45
2022-12-04T10:56:09.676Z,13.96
2022-12-04T10:57:09.679Z,13.49
2022-12-04T10:58:09.678Z,13.12
2022-12-04T10:59:09.686Z,12.64
2022-12-04T11:00:09.668Z,12.29
2022-12-04T11:01:09.645Z,11.91
2022-12-04T11:02:09.714Z,11.67
2022-12-04T11:03:09.711Z,11.43
2022-12-04T11:04:09.642Z,11.14
2022-12-04T11:05:09.629Z,10.88
2022-12-04T11:06:09.630Z,10.73
2022-12-04T11:07:09.609Z,10.66
2022-12-04T11:08:09.748Z,10.44
2022-12-04T11:09:09.629Z,10.25
2022-12-04T11:10:09.600Z,10.07
2022-12-04T11:11:09.585Z,9.94
2022-12-04T11:12:09.584Z,9.87
2022-12-04T11:13:09.569Z,9.75
2022-12-04T11:14:09.569Z,9.64
2022-12-04T11:15:09.558Z,9.43
2022-12-04T11:16:09.620Z,9.36
2022-12-04T11:17:09.535Z,9.31
2022-12-04T11:18:09.528Z,9.15
2022-12-04T11:19:09.501Z,9.11
2022-12-04T11:20:09.514Z,9.02
2022-12-04T11:21:09.479Z,9.02
2022-12-04T11:22:09.492Z,8.95
2022-12-04T11:23:09.488Z,8.70
2022-12-04T11:24:09.505Z,8.61
2022-12-04T11:25:09.453Z,8.53
2022-12-04T11:26:09.454Z,8.47
2022-12-04T11:27:09.421Z,8.45
2022-12-04T11:28:14.732Z,8.43
2022-12-04T11:29:09.408Z,8.43
2022-12-04T11:30:09.410Z,8.48
2022-12-04T11:31:09.526Z,8.41
2022-12-04T11:32:09.411Z,8.43
2022-12-04T11:33:09.361Z,8.50
2022-12-04T11:34:09.359Z,8.43
2022-12-04T11:35:09.357Z,8.45
2022-12-04T11:36:09.350Z,8.45
2022-12-04T11:37:09.416Z,8.40
2022-12-04T11:38:09.413Z,8.38
2022-12-04T11:39:09.298Z,8.38
2022-12-04T11:40:09.309Z,8.41
2022-12-04T11:41:09.282Z,8.59
2022-12-04T11:42:09.268Z,8.66
2022-12-04T11:43:09.264Z,8.89
2022-12-04T11:44:09.250Z,9.08
2022-12-04T11:45:09.237Z,9.24
2022-12-04T11:46:09.309Z,9.47
2022-12-04T11:47:09.300Z,9.72
2022-12-04T11:48:09.219Z,9.87
2022-12-04T11:49:09.203Z,9.94
2022-12-04T11:50:09.186Z,10.20
2022-12-04T11:51:09.183Z,10.29
2022-12-04T11:52:09.175Z,10.44
2022-12-04T11:53:09.176Z,10.68
2022-12-04T11:54:09.167Z,10.85
2022-12-04T11:55:09.151Z,10.97
2022-12-04T11:56:09.167Z,10.99
2022-12-04T11:57:09.127Z,11.14
2022-12-04T11:58:09.135Z,11.29
2022-12-04T11:59:09.109Z,11.29
2022-12-04T12:00:09.108Z,11.49
2022-12-04T12:01:09.116Z,11.55
2022-12-04T12:02:09.216Z,11.64
2022-12-04T12:03:09.300Z,11.73
2022-12-04T12:04:09.143Z,11.79
2022-12-04T12:05:09.060Z,11.85
2022-12-04T12:06:09.044Z,11.94
2022-12-04T12:07:09.048Z,12.04
2022-12-04T12:08:09.042Z,12.10
2022-12-04T12:09:09.036Z,12.17
2022-12-04T12:10:09.013Z,12.29
2022-12-04T12:11:09.006Z,12.29
2022-12-04T12:12:09.020Z,12.38
2022-12-04T12:13:08.992Z,12.39
2022-12-04T12:14:08.989Z,12.46
2022-12-04T12:15:08.988Z,12.46
2022-12-04T12:16:09.086Z,12.62
2022-12-04T12:17:08.975Z,12.65
2022-12-04T12:18:08.969Z,12.57
2022-12-04T12:19:08.972Z,12.64
2022-12-04T12:20:08.949Z,12.65
2022-12-04T12:21:08.951Z,12.68
2022-12-04T12:22:08.927Z,12.72
2022-12-04T12:23:08.946Z,12.79
2022-12-04T12:24:08.965Z,12.90
2022-12-04T12:25:08.921Z,12.87
2022-12-04T12:26:08.925Z,12.93
2022-12-04T12:27:08.916Z,12.97
2022-12-04T12:28:08.895Z,12.97
2022-12-04T12:29:08.889Z,13.07
2022-12-04T12:30:08.890Z,13.01
2022-12-04T12:31:08.964Z,13.08
2022-12-04T12:32:08.949Z,13.00
2022-12-04T12:33:08.875Z,13.05
2022-12-04T12:34:08.873Z,13.15
2022-12-04T12:35:08.867Z,13.11
2022-12-04T12:36:08.850Z,13.11
2022-12-04T12:37:08.843Z,13.14
2022-12-04T12:38:08.845Z,13.15
2022-12-04T12:39:08.838Z,13.19
2022-12-04T12:40:08.833Z,13.11
2022-12-04T12:41:08.825Z,13.32
2022-12-04T12:42:08.823Z,13.26
2022-12-04T12:43:08.863Z,13.30
2022-12-04T12:44:08.811Z,13.29
2022-12-04T12:45:08.799Z,13.33
2022-12-04T12:46:08.873Z,13.38
2022-12-04T12:47:08.788Z,13.36
2022-12-04T12:48:08.774Z,13.29
2022-12-04T12:49:08.774Z,13.38
2022-12-04T12:50:08.759Z,13.42
2022-12-04T12:51:29.021Z,13.30
2022-12-04T12:52:08.757Z,13.46
2022-12-04T12:53:08.759Z,13.48